• Join FlightAware (Why Join?)
  • Login
  • US Flag 
05:46PM EST


 

Airport Tracker/Info


-or-


 

Live Flight TrackerFlight Track Log ✈ EJA929 ✈ 15-Nov-2013 ✈ KHPN - KMCO

Flight Track Log - Related Links

Times and Time Zones

All times are in EST time to prevent confusion due to time zone crossing. See the EJA929 flight status page for this flight to view local times or setup timezone preferences in your user account.

Time Position Orientation Groundspeed Altitude Reporting Facility
EST Latitude Longitude Course Direction KTS MPH feet Rate Location/Type
05:18PM 41.0333 -73.7167 311° West 189 217 2,300  Level New York TRACON
05:19PM 41.0667 -73.7667 311° West 216 249 3,300 1,920 Climbing New York TRACON
05:20PM 41.1000 -73.8333 304° West 246 283 6,200 2,520 Climbing New York TRACON
05:21PM 41.1500 -73.9167 309° West 259 298 8,400 1,440 Climbing New York TRACON
05:22PM 41.2167 -73.9167 360° North 308 354 9,100 300 Climbing New York TRACON
05:23PM 41.2333 -73.8000 79° East 324 373 9,100  Level New York TRACON
05:24PM 41.2500 -73.6833 79° East 326 375 9,100  Level New York TRACON
05:25PM 41.2833 -73.5667 69° East 325 374 9,100  Level New York TRACON
05:26PM 41.2667 -73.4500 101° East 322 371 9,100 -60 Level New York TRACON
05:28PM 41.2367 -73.2322 100° East 315 362 9,000 -60 Descending Boston Center
05:29PM 41.2233 -73.1164 99° East 317 365 9,000  Level Boston Center
05:30PM 41.2097 -73.0056 99° East 309 356 9,000 240 Level Boston Center
05:31PM 41.1781 -72.9081 113° Southeast 296 341 9,600 600 Climbing Boston Center
05:32PM 41.1047 -72.8439 147° Southeast 313 360 10,300 660 Climbing Boston Center
05:33PM 41.0217 -72.7514 140° Southeast 381 438 11,000 300 Climbing Boston Center
05:34PM 40.9303 -72.6531 141° Southeast 408 470 11,000 540 Level Boston Center
05:35PM 40.8383 -72.5519 140° Southeast 413 475 12,100 1,740 Climbing Boston Center
05:36PM 40.7375 -72.5403 175° South 375 432 14,600 2,160 Climbing Boston Center
05:37PM 40.6575 -72.6214 218° Southwest 361 415 16,600 1,980 Climbing Boston Center
05:38PM 40.5656 -72.7286 222° Southwest 366 421 18,700 1,980 Climbing Boston Center
05:39PM 40.4897 -72.8167 221° Southwest 375 432 20,700 1,980 Climbing Boston Center
05:40PM 40.4081 -72.9094 221° Southwest 386 444 22,700 1,980 Climbing Boston Center
05:41PM 40.3250 -73.0025 221° Southwest 393 452 24,800 1,980 Climbing Boston Center
05:43PM 40.2414 -73.0981 221° Southwest 399 459 26,900 2,040 Climbing Boston Center
05:44PM 40.1519 -73.1997 221° Southwest 408 470 29,000 1,980 Climbing Boston Center
05:45PM 40.0631 -73.2986 220° Southwest 417 480 31,000 1,980 Climbing Boston Center
05:46PM 39.9564 -73.4208 221° Southwest 426 490 33,400 1,980 Climbing Washington Center
05:48PM 39.7783 -73.6153 220° Southwest 427 491 37,400 1,920 Climbing Washington Center
05:49PM 39.6925 -73.7067 219° Southwest 415 478 39,400 1,860 Climbing Washington Center
05:50PM 39.6061 -73.7869 216° Southwest 402 463 41,100 1,320 Climbing Washington Center
05:51PM 39.5178 -73.8725 217° Southwest 397 457 42,100 900 Climbing Washington Center
05:52PM 39.4294 -73.9581 217° Southwest 397 457 43,000 420 Climbing Washington Center
05:53PM 39.3389 -74.0433 216° Southwest 402 463 43,000  Level Washington Center
05:54PM 39.2442 -74.1336 216° Southwest 414 476 43,000  Level Washington Center
05:55PM 39.1492 -74.2239 216° Southwest 424 488 43,000  Level Washington Center
05:56PM 39.0522 -74.3167 217° Southwest 430 495 43,000  Level Washington Center
05:57PM 38.9531 -74.4064 215° Southwest 436 502 43,000  Level Washington Center
05:58PM 38.8478 -74.5069 217° Southwest 436 502 43,000  Level Washington Center
05:59PM 38.7486 -74.5989 216° Southwest 436 502 43,000  Level Washington Center
06:00PM 38.6514 -74.6878 216° Southwest 436 502 43,000  Level Washington Center
06:01PM 38.5519 -74.7819 217° Southwest 441 507 43,000  Level Washington Center
06:02PM 38.4544 -74.8706 215° Southwest 446 513 43,000  Level Washington Center
06:03PM 38.3569 -74.9589 215° Southwest 446 513 43,000 -60 Level Washington Center
06:04PM 38.2594 -75.0522 217° Southwest 441 507 42,900  Descending Washington Center
06:05PM 38.1617 -75.1403 215° Southwest 441 507 43,000  Climbing Washington Center
06:06PM 38.0600 -75.2306 215° Southwest 441 507 43,000  Level Washington Center
06:07PM 37.9622 -75.3206 216° Southwest 446 513 43,000  Level Washington Center
06:08PM 37.8664 -75.4078 216° Southwest 446 513 43,000 -60 Level Washington Center
06:09PM 37.7664 -75.4972 215° Southwest 446 513 42,900  Descending Washington Center
06:10PM 37.6706 -75.5839 216° Southwest 441 507 43,000 540 Climbing Washington Center
06:11PM 37.5808 -75.6625 215° Southwest 428 493 44,000 960 Climbing Washington Center
06:12PM 37.4911 -75.7436 216° Southwest 415 478 44,900 480 Climbing Washington Center
06:13PM 37.3992 -75.8244 215° Southwest 405 466 45,000  Climbing Washington Center
06:14PM 37.3072 -75.9078 216° Southwest 405 466 45,000  Level Washington Center
06:15PM 37.2111 -75.9933 215° Southwest 411 473 45,000  Level Washington Center
06:16PM 37.1231 -76.0711 215° Southwest 428 493 45,000  Level Washington Center
06:17PM 37.0100 -76.1617 213° Southwest 433 498 45,000  Level Washington Center
06:18PM 36.9117 -76.2464 215° Southwest 445 512 45,000  Level Washington Center
06:19PM 36.8131 -76.3314 215° Southwest 445 512 45,000  Level Washington Center
06:20PM 36.7144 -76.4158 214° Southwest 445 512 45,000 -60 Level Washington Center
06:21PM 36.6261 -76.5003 218° Southwest 445 512 44,900  Descending Washington Center
06:22PM 36.5275 -76.5844 214° Southwest 445 512 45,000  Climbing Washington Center
06:23PM 36.4244 -76.6708 214° Southwest 445 512 45,000  Level Washington Center
06:24PM 36.3256 -76.7572 215° Southwest 445 512 45,000  Level Washington Center
06:25PM 36.2247 -76.8408 214° Southwest 445 512 45,000  Level Washington Center
06:26PM 36.1256 -76.9267 215° Southwest 445 512 45,000  Level Washington Center
06:27PM 36.0225 -77.0122 214° Southwest 445 512 45,000  Level Washington Center
06:28PM 35.9233 -77.0950 214° Southwest 445 512 45,000  Level Washington Center
06:29PM 35.8158 -77.1878 215° Southwest 437 503 45,000  Level Washington Center
06:30PM 35.7125 -77.2703 213° Southwest 437 503 45,000  Level Washington Center
06:31PM 35.6089 -77.3575 214° Southwest 442 509 45,000  Level Washington Center
06:32PM 35.5075 -77.4419 214° Southwest 447 514 45,000  Level Washington Center
06:33PM 35.4019 -77.5261 213° Southwest 447 514 45,000 -540 Level Washington Center
06:34PM 35.3003 -77.6078 213° Southwest 447 514 44,000 -1,020 Descending Washington Center
06:35PM 35.1989 -77.6889 213° Southwest 447 514 43,000 -540 Descending Washington Center
06:36PM 35.0992 -77.7678 213° Southwest 447 514 43,000  Level Washington Center
06:37PM 34.9997 -77.8486 214° Southwest 442 509 43,000  Level Washington Center
06:38PM 34.9022 -77.9294 214° Southwest 442 509 43,000  Level Washington Center
06:39PM 34.8089 -78.0103 215° Southwest 437 503 43,000  Level Washington Center
06:41PM 34.5872 -78.1842 213° Southwest 429 494 43,000  Level Jacksonville Center
06:42PM 34.4858 -78.2678 214° Southwest 434 499 43,000  Level Jacksonville Center
06:43PM 34.3764 -78.3542 213° Southwest 434 499 43,000  Level Jacksonville Center
06:44PM 34.2769 -78.4322 213° Southwest 434 499 43,000  Level Jacksonville Center
06:45PM 34.1756 -78.5103 213° Southwest 434 499 43,000  Level Jacksonville Center
06:46PM 34.0692 -78.5758 207° Southwest 434 499 43,000  Level Jacksonville Center
06:47PM 33.9608 -78.6361 205° Southwest 434 499 43,000  Level Jacksonville Center
06:48PM 33.8481 -78.6992 205° Southwest 444 511 43,000  Level Jacksonville Center
06:49PM 33.7375 -78.7619 205° Southwest 444 511 43,000  Level Jacksonville Center
06:50PM 33.6289 -78.8219 205° Southwest 444 511 43,000  Level Jacksonville Center
06:51PM 33.5181 -78.8842 205° Southwest 438 504 43,000  Level Jacksonville Center
06:52PM 33.4175 -78.9336 202° Southwest 438 504 43,000  Level Jacksonville Center
06:53PM 33.3108 -78.9956 206° Southwest 438 504 43,000  Level Jacksonville Center
06:54PM 33.1981 -79.0575 205° Southwest 438 504 43,000  Level Jacksonville Center
06:55PM 33.0850 -79.1194 205° Southwest 438 504 43,000  Level Jacksonville Center
06:56PM 32.9742 -79.1808 205° Southwest 438 504 43,000  Level Jacksonville Center
06:57PM 32.8611 -79.2425 205° Southwest 438 504 43,000  Level Jacksonville Center
06:58PM 32.7481 -79.3039 205° Southwest 438 504 43,000  Level Jacksonville Center
06:59PM 32.6350 -79.3650 204° Southwest 443 510 43,000  Level Jacksonville Center
07:00PM 32.5219 -79.4286 205° Southwest 448 516 43,000  Level Jacksonville Center
07:01PM 32.4089 -79.4894 204° Southwest 448 516 43,000  Level Jacksonville Center
07:02PM 32.2958 -79.5503 204° Southwest 448 516 43,000  Level Jacksonville Center
07:03PM 32.1825 -79.6133 205° Southwest 448 516 43,000  Level Jacksonville Center
07:04PM 32.0672 -79.6739 204° Southwest 453 521 43,000  Level Jacksonville Center
07:05PM 31.9561 -79.7339 205° Southwest 453 521 43,000  Level Jacksonville Center
07:06PM 31.8325 -79.8017 205° Southwest 453 521 43,000  Level Jacksonville Center
07:07PM 31.7192 -79.8642 205° Southwest 453 521 43,000  Level Jacksonville Center
07:08PM 31.6036 -79.9217 203° Southwest 453 521 43,000  Level Jacksonville Center
07:09PM 31.4900 -79.9836 205° Southwest 459 528 43,000  Level Jacksonville Center
07:10PM 31.3747 -80.0481 206° Southwest 459 528 43,000  Level Jacksonville Center
07:11PM 31.2611 -80.1050 203° Southwest 453 521 43,000 -780 Level Jacksonville Center
07:12PM 31.1497 -80.1667 205° Southwest 453 521 41,500 -1,920 Descending Jacksonville Center
07:13PM 31.0361 -80.2256 204° Southwest 453 521 39,200 -2,400 Descending Jacksonville Center
07:14PM 30.9225 -80.2822 203° Southwest 453 521 36,800 -2,400 Descending Jacksonville Center
07:15PM 30.8089 -80.3433 205° Southwest 453 521 34,400 -2,400 Descending Jacksonville Center
07:16PM 30.6911 -80.4019 203° Southwest 458 527 32,100 -1,200 Descending Jacksonville Center
07:17PM 30.5733 -80.4631 204° Southwest 458 527 32,000 -60 Descending Jacksonville Center
07:18PM 30.4553 -80.5239 204° Southwest 458 527 32,000  Level Jacksonville Center
07:19PM 30.3417 -80.5794 203° Southwest 458 527 32,000  Level Jacksonville Center
07:20PM 30.2214 -80.6306 200° South 458 527 32,000  Level Jacksonville Center
07:21PM 30.0992 -80.6767 198° South 458 527 32,000 -360 Level Jacksonville Center
07:22PM 29.9767 -80.7250 199° South 464 534 31,300 -1,680 Descending Jacksonville Center
07:23PM 29.8564 -80.7731 199° South 464 534 28,700 -2,580 Descending Jacksonville Center
07:24PM 29.7300 -80.8214 198° South 464 534 26,200 -2,460 Descending Jacksonville Center
07:25PM 29.6075 -80.8669 198° South 464 534 23,800 -2,400 Descending Jacksonville Center
07:26PM 29.4892 -80.9147 199° South 457 526 21,400 -2,400 Descending Jacksonville Center
07:27PM 29.3750 -80.9575 198° South 444 511 19,100 -2,280 Descending Jacksonville Center
07:28PM 29.2692 -80.9931 196° South 434 499 16,900 -1,980 Descending Jacksonville Center
07:29PM 29.1758 -81.0303 199° South 398 458 15,200 -1,620 Descending Jacksonville Center
07:30PM 29.0989 -81.0603 199° South 352 405 13,700 -1,560 Descending Jacksonville Center
07:31PM 29.0222 -81.0878 197° South 310 357 12,100 -1,140 Descending Jacksonville Center
07:32PM 28.9444 -81.0608 163° South 276 318 11,500 -1,020 Descending Jacksonville Center
07:33PM 28.8750 -81.0267 157° South 276 318 10,100 -1,440 Descending Jacksonville Center
07:34PM 28.8122 -80.9969 157° South 265 305 8,700 -1,380 Descending Jacksonville Center
07:35PM 28.7497 -81.0053 187° South 224 258 7,400 -1,260 Descending Jacksonville Center
07:36PM 28.7422 -81.0694 262° West 167 192 6,200 -720 Descending Jacksonville Center
07:37PM 28.7369 -81.1358 265° West 175 201 6,000 -540 Descending Jacksonville Center
07:38PM 28.7314 -81.1972 264° West 193 222 5,200 -900 Descending Jacksonville Center
07:39PM 28.6833 -81.2667 232° Southwest 200 230 3,900 -960 Descending Orlando TRACON
07:40PM 28.6500 -81.3000 221° Southwest 188 216 3,000 -720 Descending Orlando TRACON
07:41PM 28.6000 -81.3167 196° South 178 205 2,500 -300 Descending Orlando TRACON
07:42PM 28.5500 -81.3333 196° South 149 171 2,500 -480 Level Orlando TRACON
07:43PM 28.5167 -81.3333 180° South 140 161 1,600 -900 Descending Orlando TRACON
07:44PM 28.4833 -81.3333 180° South 138 159 800 -840 Descending Orlando TRACON
07:46PM 28.4294 -81.3090 180° South  Level Estimated
07:53PM 28.4294 -81.3090 336° Northwest  Level Estimated
07:54PM 28.4294 -81.3090 336° Northwest  Level Estimated
07:55PM 28.4294 -81.3090 336° Northwest  Level Estimated
07:56PM 28.4294 -81.3090 336° Northwest  Level Estimated